Tuesday, September 30, 2014
18:01 UTC
  |  Log In   |  Register Free
Airport Search:

Madison Airport
(I39)

Madison Airport Diagram
No Airport Diagram Available

FAA data valid effective September 18, 2014 - November 13, 2014 (unless otherwise noted).

 
 
 
 
 
 
 
 
 
 
 
 
 
 

Current Aviation Weather for Madison Airport (I39)

METAR data is unavailable for I39. The nearest METAR location is at KDVK (21 nm SW from I39).

The most recent METAR observation for KDVK was updated at: 1711
METAR Summary (Translated METAR)
KDVK
301655Z AUTO 31005KT 10SM CLR 27/11 A2998 RMK AO2
(21 nm SW from I39)
KLEX
301654Z VRB05KT 10SM CLR 27/10 A2996 RMK AO2 SLP137 T02720100
(27.6 nm NW from I39)
TAF Summary (Translated TAF)
KLEX
(28.6 nm NE from KDVK)
301136Z 3012/0112 00000KT P6SM SKC FM301500 29007KT P6SM SCT040 SCT250 FM010000 VRB03KT P6SM SCT250 FM011000 VRB03KT 5SM BR SCT005
  Airport Weather Conditions for I39

Current weather conditions are
not available for I39


The nearest NOAA weather station
is at DVK, (21 nm SW from I39)
  
 Current Weather at DVK
79° F
Fair
West winds at 4.6 mph
DVK NOAA Radar

Pressure: 29.97 in
Humidity: 39%
Wind: West at 4.6 MPH (4 KT)
Dew Point: 51.8°F
Visibility: 10.00 mi


Airport Weather Forecast for I39

Translated METAR and TAF for KDVK
Translated METAR for KDVK (1755 UTC 30 September 2014)
found at http://aviationweather.gov/adds/metars/
 
METAR text: KDVK 301740Z AUTO 28006KT 10SM SCT070 27/11 A2996 RMK AO2
Conditions at: KDVK (DANVILLE , KY, US) observed 1740 UTC 30 September 2014
Temperature: 27.0°C (81°F)
Dewpoint: 11.0°C (52°F) [RH = 37%]
Pressure (altimeter): 29.96 inches Hg (1014.6 mb)
Winds: from the W (280 degrees) at 7 MPH (6 knots; 3.1 m/s)
Visibility: 10 or more miles (16+ km)
Ceiling: at least 12,000 feet AGL
Clouds: scattered clouds at 7000 feet AGL
Weather: automated observation with no human augmentation;
there may or may not be significant weather present at this time
Translated TAF for KDVK

There is no translated TAF available for this airport

Find All Airport Services Find A Hotel Find A Rental Car Find A Golf Course Find A Restaurant $100 Hamburger



FBO's on the Field
FBO Company Facility Photos Services Transportation Aviation Fuel Prices: Prices include tax
Catering Weather Repair Courtesy Rental Type 100LL JetA JetA+ MOGAS 8087
 
Eastern Kentucky University

This FBO has not yet been rated
FS:Shell
Last Updated: Aug-29
Login to update fuel prices
SS:
Contact Eastern Kentucky UniversityMore FBO Information
 
Add another FBO Facility Photos Catering Weather Repair Courtesy Rental Type 100LL JetA JetA+ MOGAS 8087
Services Transportation Aviation Fuel Prices: Prices include tax


model-print
model-print
model-print
model-print